Time;durP1;ratioP1;P1;durP2;ratioP2;P2;SDS_P1;SDS_P2;PMS_P1;PMS_P2;Temp;Humidity;BMP_temperature;BMP_pressure;BME280_temperature;BME280_humidity;BME280_pressure;Samples;Min_cycle;Max_cycle;Signal;HPM_P1;HPM_P2
2022/11/07 00:01:20;;;;;;;54.25;29.80;;;;;;;9.24;69.19;101389.38;1704849;84;21122;-75
2022/11/07 00:03:48;;;;;;;51.08;29.45;;;;;;;9.21;69.14;101391.97;1668901;85;21764;-74
2022/11/07 00:06:16;;;;;;;51.53;29.67;;;;;;;9.21;69.17;101387.17;1650971;85;21089;-75
2022/11/07 00:08:44;;;;;;;49.95;28.02;;;;;;;9.21;69.17;101384.50;1694969;84;21599;-75
2022/11/07 00:11:11;;;;;;;51.35;28.57;;;;;;;9.21;69.15;101381.84;1696600;82;21114;-75
2022/11/07 00:13:39;;;;;;;58.23;30.27;;;;;;;9.22;69.17;101388.29;1696177;83;21071;-75
2022/11/07 00:16:09;;;;;;;51.60;28.12;;;;;;;9.23;69.19;101388.57;1689581;84;21531;-73
2022/11/07 00:18:36;;;;;;;46.45;27.15;;;;;;;9.28;69.18;101394.05;1699093;83;21119;-75
2022/11/07 00:21:07;;;;;;;51.08;29.23;;;;;;;9.27;69.14;101385.73;1702588;84;21132;-74
2022/11/07 00:23:40;;;;;;;47.80;27.85;;;;;;;9.27;69.05;101383.07;1705129;84;21468;-74
2022/11/07 00:26:10;;;;;;;47.85;27.77;;;;;;;9.27;69.02;101383.07;1696233;84;21020;-74
2022/11/07 00:28:39;;;;;;;43.98;25.68;;;;;;;9.27;69.00;101387.59;1691008;84;20980;-73
2022/11/07 00:31:08;;;;;;;47.08;28.10;;;;;;;9.26;68.98;101377.98;1701191;84;21539;-74
2022/11/07 00:33:35;;;;;;;51.13;28.02;;;;;;;9.28;69.00;101386.55;1699897;83;21242;-74
2022/11/07 00:36:04;;;;;;;49.00;28.52;;;;;;;9.28;68.99;101379.87;1708066;83;21536;-71
2022/11/07 00:38:32;;;;;;;48.20;28.47;;;;;;;9.29;68.99;101380.20;1706067;84;20997;-71
2022/11/07 00:41:05;;;;;;;44.23;26.80;;;;;;;9.30;68.96;101377.81;1705804;84;21197;-74
2022/11/07 00:43:34;;;;;;;42.10;24.10;;;;;;;9.30;68.93;101374.62;1698563;83;21593;-72
2022/11/07 00:46:02;;;;;;;48.20;28.07;;;;;;;9.30;68.90;101372.48;1703638;84;21244;-74
2022/11/07 00:48:30;;;;;;;44.80;26.42;;;;;;;9.29;68.88;101370.86;1702367;84;21551;-74
2022/11/07 00:51:13;;;;;;;46.37;28.12;;;;;;;9.29;68.90;101373.53;1704062;84;21075;-75
2022/11/07 00:53:41;;;;;;;47.55;26.97;;;;;;;9.30;68.92;101369.29;1696368;83;22440;-75
2022/11/07 00:56:11;;;;;;;45.83;26.07;;;;;;;9.32;68.93;101369.89;1705117;84;21024;-74
2022/11/07 00:58:38;;;;;;;46.30;26.85;;;;;;;9.36;68.85;101364.91;1705204;83;21147;-74
2022/11/07 01:01:11;;;;;;;44.38;26.37;;;;;;;9.35;68.83;101363.29;1701044;84;21448;-74
2022/11/07 01:06:28;;;;;;;47.83;27.10;;;;;;;9.35;68.75;101357.44;1704542;84;21044;-75
2022/11/07 01:08:55;;;;;;;41.30;25.65;;;;;;;9.36;68.72;101355.05;1705220;84;21547;-75
2022/11/07 01:11:24;;;;;;;48.73;28.87;;;;;;;9.39;68.68;101355.12;1700026;82;21588;-74
2022/11/07 01:13:57;;;;;;;43.55;26.95;;;;;;;9.40;68.64;101357.54;1673437;85;21097;-74
2022/11/07 01:16:23;;;;;;;42.80;25.95;;;;;;;9.40;68.63;101356.73;1666070;86;20971;-74
2022/11/07 01:18:52;;;;;;;45.75;27.67;;;;;;;9.41;68.60;101351.71;1698167;82;21673;-74
2022/11/07 01:21:20;;;;;;;41.80;25.77;;;;;;;9.42;68.56;101348.52;1701197;83;21060;-73
2022/11/07 01:23:47;;;;;;;45.40;26.40;;;;;;;9.41;68.53;101347.71;1703678;84;21248;-75
2022/11/07 01:26:14;;;;;;;42.93;27.42;;;;;;;9.41;68.51;101343.71;1705266;84;21056;-75
2022/11/07 01:28:41;;;;;;;41.83;25.55;;;;;;;9.42;68.53;101342.66;1701704;84;20964;-77
2022/11/07 01:31:11;;;;;;;38.02;24.77;;;;;;;9.46;68.50;101341.68;1704557;84;21605;-74
2022/11/07 01:33:38;;;;;;;44.33;26.12;;;;;;;9.45;68.42;101338.73;1704801;82;20964;-75
2022/11/07 01:36:09;;;;;;;42.83;26.37;;;;;;;9.44;68.38;101338.42;1701925;84;21171;-76
2022/11/07 01:38:38;;;;;;;38.23;24.02;;;;;;;9.40;68.36;101336.21;1696920;83;21111;-75
2022/11/07 01:41:21;;;;;;;41.20;25.27;;;;;;;9.41;68.36;101341.05;1675660;85;21014;-74
2022/11/07 01:44:02;;;;;;;40.75;25.35;;;;;;;9.42;68.36;101337.86;1665336;86;21629;-76
2022/11/07 01:46:36;;;;;;;38.48;24.12;;;;;;;9.44;68.37;101337.89;1704845;84;21554;-75
2022/11/07 01:49:18;;;;;;;39.03;25.57;;;;;;;9.44;68.29;101329.09;1697286;84;21009;-74
2022/11/07 01:51:52;;;;;;;38.88;24.63;;;;;;;9.42;68.24;101324.00;1704986;84;21060;-75
2022/11/07 01:54:21;;;;;;;38.40;24.43;;;;;;;9.40;68.19;101334.87;1701978;83;21048;-74
2022/11/07 01:56:49;;;;;;;40.10;24.15;;;;;;;9.38;68.19;101330.84;1682652;84;21020;-74
2022/11/07 01:59:19;;;;;;;38.10;24.60;;;;;;;9.38;68.21;101320.17;1666765;85;21450;-74
2022/11/07 02:01:47;;;;;;;40.30;25.95;;;;;;;9.39;68.21;101321.79;1663983;86;21542;-74
2022/11/07 02:04:14;;;;;;;39.80;23.85;;;;;;;9.39;68.18;101327.12;1690523;84;20937;-72
2022/11/07 02:06:54;;;;;;;36.65;23.75;;;;;;;9.40;68.19;101323.41;1684433;84;21080;-72
2022/11/07 02:09:22;;;;;;;;;;;;;;;9.42;68.20;101322.66;1668426;84;21044;-74
2022/11/07 02:11:49;;;;;;;37.15;23.32;;;;;;;9.41;68.13;101314.38;1673938;83;20149;-75
2022/11/07 02:14:18;;;;;;;37.42;24.35;;;;;;;9.40;68.15;101309.55;1648757;85;21630;-75
2022/11/07 02:16:45;;;;;;;37.55;25.17;;;;;;;9.40;68.12;101309.55;1653406;85;20977;-74
2022/11/07 02:19:24;;;;;;;42.78;25.95;;;;;;;9.38;68.07;101308.98;1702081;84;21064;-75
2022/11/07 02:21:55;;;;;;;38.85;24.60;;;;;;;9.38;68.10;101300.98;1696819;84;21028;-74
2022/11/07 02:24:32;;;;;;;35.40;23.30;;;;;;;9.38;68.09;101303.66;1684053;83;21089;-75
2022/11/07 02:27:02;;;;;;;37.98;26.40;;;;;;;9.39;68.08;101303.12;1677478;84;21252;-74
2022/11/07 02:29:30;;;;;;;36.50;24.05;;;;;;;9.40;68.13;101302.88;1675343;85;21090;-75
2022/11/07 02:32:06;;;;;;;37.00;23.90;;;;;;;9.43;68.11;101310.95;1666077;85;21000;-74
2022/11/07 02:34:33;;;;;;;34.58;23.10;;;;;;;9.45;68.10;101309.40;1691122;84;21573;-75
2022/11/07 02:37:01;;;;;;;36.53;24.63;;;;;;;9.45;68.02;101306.20;1704892;84;21118;-75
2022/11/07 02:39:28;;;;;;;34.88;24.07;;;;;;;9.44;68.02;101302.42;1704711;82;21605;-75
2022/11/07 02:41:56;;;;;;;37.73;24.10;;;;;;;9.44;68.00;101308.56;1698449;84;21077;-75
2022/11/07 02:44:22;;;;;;;36.68;23.52;;;;;;;9.46;67.98;101306.48;1700223;84;20985;-74
2022/11/07 02:46:49;;;;;;;37.40;23.65;;;;;;;9.46;67.93;101300.34;1689746;84;21029;-74
2022/11/07 02:49:16;;;;;;;36.35;23.10;;;;;;;9.46;67.90;101303.02;1623880;87;21101;-75
2022/11/07 02:51:42;;;;;;;33.28;22.65;;;;;;;9.44;67.92;101297.09;1646233;86;21620;-75
2022/11/07 02:54:09;;;;;;;34.13;22.90;;;;;;;9.45;67.92;101295.54;1705201;82;21040;-74
2022/11/07 02:56:36;;;;;;;37.10;24.80;;;;;;;9.45;67.90;101294.73;1705160;82;21511;-76
2022/11/07 02:59:03;;;;;;;34.80;23.50;;;;;;;9.44;67.88;101295.23;1705254;82;21071;-75
2022/11/07 03:01:29;;;;;;;36.03;24.23;;;;;;;9.46;67.91;101293.68;1682387;82;21114;-75
2022/11/07 03:03:56;;;;;;;36.80;24.47;;;;;;;9.46;67.90;101295.82;1640137;87;21751;-76
2022/11/07 03:06:24;;;;;;;35.20;22.55;;;;;;;9.48;67.91;101298.27;1638856;87;21498;-75
2022/11/07 03:08:51;;;;;;;31.82;22.15;;;;;;;9.49;67.91;101291.36;1677077;84;21625;-74
2022/11/07 03:11:19;;;;;;;36.08;23.83;;;;;;;9.50;67.86;101281.50;1685669;84;21034;-73
2022/11/07 03:13:48;;;;;;;31.00;22.35;;;;;;;9.50;67.81;101287.64;1696981;84;21086;-74
2022/11/07 03:16:17;;;;;;;30.70;21.93;;;;;;;9.52;67.78;101286.09;1698042;84;21162;-74
2022/11/07 03:18:44;;;;;;;35.15;23.77;;;;;;;9.51;67.70;101293.28;1704127;84;21064;-75
2022/11/07 03:21:11;;;;;;;34.80;23.07;;;;;;;9.51;67.68;101301.28;1700480;84;21036;-76
2022/11/07 03:23:37;;;;;;;31.35;22.37;;;;;;;9.54;67.64;101307.49;1686997;84;21444;-75
2022/11/07 03:26:05;;;;;;;31.82;21.87;;;;;;;9.56;67.59;101301.39;1705310;84;20965;-75
2022/11/07 03:28:32;;;;;;;32.42;21.55;;;;;;;9.58;67.50;101299.84;1694467;84;22142;-75
2022/11/07 03:31:00;;;;;;;28.42;21.33;;;;;;;9.58;67.39;101304.65;1676454;85;21042;-74
2022/11/07 03:33:29;;;;;;;31.52;21.30;;;;;;;9.59;67.32;101301.45;1654138;86;21071;-72
2022/11/07 03:35:55;;;;;;;32.30;21.10;;;;;;;9.60;67.21;101299.06;1682921;84;21052;-73
2022/11/07 03:38:22;;;;;;;29.60;20.37;;;;;;;9.58;67.13;101293.98;1638732;87;21045;-72
2022/11/07 03:40:48;;;;;;;30.72;21.27;;;;;;;9.59;67.01;101300.92;1700885;84;21221;-75
2022/11/07 03:43:15;;;;;;;30.00;21.37;;;;;;;9.58;66.92;101301.98;1701242;84;21100;-75
2022/11/07 03:45:42;;;;;;;28.20;19.67;;;;;;;9.58;66.90;101298.50;1684078;84;21526;-76
2022/11/07 03:48:08;;;;;;;30.02;21.35;;;;;;;9.58;66.82;101306.50;1648576;87;21173;-75
2022/11/07 03:50:36;;;;;;;28.45;20.08;;;;;;;9.57;66.74;101299.00;1649058;85;21183;-76
2022/11/07 03:53:02;;;;;;;28.40;20.27;;;;;;;9.59;66.71;101301.45;1663329;86;21821;-75
2022/11/07 03:55:29;;;;;;;26.33;19.27;;;;;;;9.58;66.62;101299.84;1702764;84;21043;-75
2022/11/07 03:57:57;;;;;;;26.82;19.92;;;;;;;9.58;66.56;101297.98;1703045;84;21012;-74
2022/11/07 04:00:23;;;;;;;27.65;19.73;;;;;;;9.59;66.53;101292.92;1702479;84;20971;-74
2022/11/07 04:02:50;;;;;;;29.67;20.57;;;;;;;9.61;66.49;101292.71;1698761;84;20996;-75
2022/11/07 04:05:16;;;;;;;30.90;20.68;;;;;;;9.62;66.43;101287.66;1697146;84;21156;-75
2022/11/07 04:07:43;;;;;;;26.95;19.20;;;;;;;9.65;66.37;101290.39;1673497;85;20983;-74
2022/11/07 04:10:09;;;;;;;30.15;20.77;;;;;;;9.66;66.28;101282.14;1664922;86;21107;-75
2022/11/07 04:18:05;;;;;;;27.95;19.60;;;;;;;9.61;66.11;101273.52;1649654;86;21723;-75
2022/11/07 04:20:31;;;;;;;27.22;18.70;;;;;;;9.61;66.11;101278.84;1699264;84;21007;-74
2022/11/07 04:22:58;;;;;;;26.77;19.60;;;;;;;9.62;66.06;101277.80;1698323;84;21016;-75
2022/11/07 04:28:09;;;;;;;28.38;19.67;;;;;;;9.60;65.95;101275.87;1701456;84;21060;-74
2022/11/07 04:30:37;;;;;;;26.87;19.20;;;;;;;9.60;65.91;101281.73;1693778;84;21829;-74
2022/11/07 04:33:03;;;;;;;26.05;19.15;;;;;;;9.58;65.87;101279.31;1647427;85;21612;-74
2022/11/07 04:35:32;;;;;;;26.65;19.30;;;;;;;9.59;65.88;101280.12;1673003;85;21540;-74
2022/11/07 04:37:59;;;;;;;27.67;19.42;;;;;;;9.59;65.82;101278.78;1698904;84;21126;-75
2022/11/07 04:40:27;;;;;;;27.80;18.98;;;;;;;9.58;65.79;101282.50;1699513;83;20992;-74
2022/11/07 04:42:54;;;;;;;24.95;17.50;;;;;;;9.57;65.71;101282.19;1709725;83;21132;-74
2022/11/07 04:45:21;;;;;;;27.58;19.57;;;;;;;9.53;65.66;101277.84;1702958;84;21032;-75
2022/11/07 04:47:47;;;;;;;26.27;19.02;;;;;;;9.51;65.67;101275.95;1707227;83;20978;-74
2022/11/07 04:50:16;;;;;;;25.77;18.27;;;;;;;9.51;65.66;101283.95;1707296;84;21084;-75
2022/11/07 04:52:45;;;;;;;24.30;18.00;;;;;;;9.52;65.71;101277.56;1708068;84;20940;-75
2022/11/07 04:55:24;;;;;;;25.17;17.70;;;;;;;9.53;65.71;101283.18;1706351;83;21083;-74
2022/11/07 04:57:51;;;;;;;26.05;18.32;;;;;;;9.56;65.67;101277.91;1709080;84;21043;-74
2022/11/07 05:00:19;;;;;;;26.73;18.32;;;;;;;9.54;65.58;101272.83;1709420;84;21043;-75
2022/11/07 05:02:46;;;;;;;24.47;17.42;;;;;;;9.51;65.48;101273.28;1708263;84;21004;-74
2022/11/07 05:05:12;;;;;;;25.57;19.25;;;;;;;9.49;65.46;101271.36;1709741;84;20964;-74
2022/11/07 05:07:39;;;;;;;25.23;18.02;;;;;;;9.48;65.48;101272.94;1688164;84;21787;-76
2022/11/07 05:10:09;;;;;;;27.15;19.17;;;;;;;9.46;65.45;101273.16;1675504;85;21109;-75
2022/11/07 05:12:35;;;;;;;28.80;18.95;;;;;;;9.45;65.39;101272.07;1665101;86;21008;-73
2022/11/07 05:15:04;;;;;;;26.27;18.30;;;;;;;9.42;65.41;101272.53;1697117;84;21016;-75
2022/11/07 05:17:30;;;;;;;28.42;18.05;;;;;;;9.41;65.47;101277.05;1691542;84;21462;-75
2022/11/07 05:19:57;;;;;;;25.12;17.42;;;;;;;9.40;65.42;101279.41;1701095;82;21132;-74
2022/11/07 05:25:09;;;;;;;26.85;18.77;;;;;;;9.41;65.45;101289.05;1684018;84;21127;-73
2022/11/07 05:27:36;;;;;;;24.95;18.73;;;;;;;9.44;65.48;101296.56;1685499;84;21064;-74
2022/11/07 05:30:05;;;;;;;25.90;18.65;;;;;;;9.47;65.49;101297.44;1704317;83;21123;-73
2022/11/07 05:32:36;;;;;;;26.90;19.23;;;;;;;9.48;65.40;101295.61;1700971;84;21221;-73
2022/11/07 05:35:04;;;;;;;26.42;18.12;;;;;;;9.48;65.37;101300.41;1681339;84;21603;-73
2022/11/07 05:37:32;;;;;;;25.35;17.25;;;;;;;9.48;65.33;101301.75;1696456;84;21028;-74
2022/11/07 05:39:58;;;;;;;24.80;16.75;;;;;;;9.49;65.28;101306.55;1668653;85;21042;-74
2022/11/07 05:42:25;;;;;;;24.47;18.00;;;;;;;9.50;65.28;101311.64;1704444;84;21117;-74
2022/11/07 05:44:53;;;;;;;25.35;17.62;;;;;;;9.52;65.29;101309.56;1646766;85;21114;-75
2022/11/07 05:47:20;;;;;;;26.93;19.02;;;;;;;9.56;65.28;101317.91;1704996;84;21044;-74
2022/11/07 05:49:47;;;;;;;25.10;18.62;;;;;;;9.57;65.20;101321.67;1710117;84;20948;-74
2022/11/07 05:52:14;;;;;;;25.95;18.87;;;;;;;9.59;65.16;101322.79;1694807;84;21226;-74
2022/11/07 05:54:41;;;;;;;27.20;19.95;;;;;;;9.59;65.08;101329.45;1709826;84;20969;-74
2022/11/07 05:57:08;;;;;;;23.87;18.00;;;;;;;9.59;65.05;101323.59;1710028;82;22178;-74
2022/11/07 05:59:35;;;;;;;25.20;17.98;;;;;;;9.59;65.01;101326.79;1712208;83;20973;-74
2022/11/07 06:02:02;;;;;;;26.65;18.50;;;;;;;9.58;64.95;101323.84;1701958;84;21517;-74
2022/11/07 06:04:29;;;;;;;25.82;18.42;;;;;;;9.56;64.91;101325.92;1691891;84;21593;-74
2022/11/07 06:06:57;;;;;;;27.17;17.95;;;;;;;9.57;64.90;101322.20;1696731;84;20936;-74
2022/11/07 06:09:24;;;;;;;24.20;18.40;;;;;;;9.59;64.88;101325.45;1707020;84;21247;-74
2022/11/07 06:11:50;;;;;;;25.57;18.50;;;;;;;9.58;64.87;101322.51;1708528;84;21019;-74
2022/11/07 06:14:17;;;;;;;26.02;17.73;;;;;;;9.56;64.81;101318.72;1708167;83;21059;-74
2022/11/07 06:16:44;;;;;;;27.93;18.80;;;;;;;9.55;64.80;101322.44;1707230;84;21589;-74
2022/11/07 06:19:10;;;;;;;25.37;17.77;;;;;;;9.53;64.81;101325.84;1684208;84;21701;-74
2022/11/07 06:21:38;;;;;;;23.22;17.57;;;;;;;9.52;64.83;101320.23;1645347;86;21575;-73
2022/11/07 06:24:05;;;;;;;23.80;17.42;;;;;;;9.53;64.77;101325.84;1693176;84;21063;-73
2022/11/07 06:26:32;;;;;;;24.63;18.62;;;;;;;9.54;64.84;101322.66;1707535;84;21051;-73
2022/11/07 06:28:58;;;;;;;24.60;17.55;;;;;;;9.53;64.78;101317.05;1670607;85;21113;-74
2022/11/07 06:31:25;;;;;;;25.55;18.05;;;;;;;9.53;64.83;101313.84;1704051;84;21004;-74
2022/11/07 06:33:52;;;;;;;27.17;18.98;;;;;;;9.54;64.84;101319.50;1709229;84;21769;-74
2022/11/07 06:36:20;;;;;;;27.27;19.20;;;;;;;9.55;64.90;101318.44;1705676;83;20965;-74
2022/11/07 06:38:51;;;;;;;26.60;17.95;;;;;;;9.59;64.88;101320.93;1707746;84;21091;-73
2022/11/07 06:41:18;;;;;;;24.70;18.73;;;;;;;9.60;64.83;101322.55;1689225;84;25124;-74
2022/11/07 06:43:45;;;;;;;24.95;18.48;;;;;;;9.60;64.78;101326.55;1695154;84;21582;-74
2022/11/07 06:46:12;;;;;;;26.45;17.73;;;;;;;9.61;64.82;101328.19;1694623;84;21251;-74
2022/11/07 06:48:39;;;;;;;26.60;18.77;;;;;;;9.66;64.80;101326.15;1681718;85;21103;-73
2022/11/07 06:51:08;;;;;;;25.90;17.87;;;;;;;9.65;64.60;101326.39;1648345;86;21061;-75
2022/11/07 06:53:36;;;;;;;24.32;18.42;;;;;;;9.62;64.55;101332.47;1648458;87;21070;-75
2022/11/07 06:56:06;;;;;;;25.75;17.92;;;;;;;9.63;64.57;101330.61;1629308;87;21231;-73
2022/11/07 06:58:34;;;;;;;26.02;18.62;;;;;;;9.65;64.62;101330.40;1660436;84;21160;-75
2022/11/07 07:01:04;;;;;;;25.32;18.42;;;;;;;9.66;64.59;101330.16;1704920;82;21578;-75
2022/11/07 07:03:33;;;;;;;24.47;17.80;;;;;;;9.68;64.54;101329.94;1702408;84;21032;-75
2022/11/07 07:06:02;;;;;;;25.00;18.30;;;;;;;9.67;64.46;101326.95;1676748;85;21056;-74
2022/11/07 07:08:28;;;;;;;25.72;17.98;;;;;;;9.68;64.47;101321.94;1677163;85;21076;-75
2022/11/07 07:10:55;;;;;;;25.17;18.05;;;;;;;9.70;64.46;101321.16;1701818;84;21128;-74
2022/11/07 07:13:22;;;;;;;23.30;17.00;;;;;;;9.72;64.51;101324.42;1692486;84;21636;-75
2022/11/07 07:15:54;;;;;;;24.98;18.27;;;;;;;9.74;64.47;101322.31;1668537;85;21077;-73
2022/11/07 07:18:21;;;;;;;25.10;18.17;;;;;;;9.73;64.38;101325.51;1651419;86;21134;-74
2022/11/07 07:20:50;;;;;;;25.25;18.15;;;;;;;9.78;64.42;101330.16;1687840;84;21039;-75
2022/11/07 07:23:18;;;;;;;26.75;17.75;;;;;;;9.82;64.34;101327.31;1683913;84;21805;-76
2022/11/07 07:25:48;;;;;;;24.10;17.65;;;;;;;9.83;64.28;101335.07;1698999;84;21017;-74
2022/11/07 07:28:14;;;;;;;23.98;17.45;;;;;;;9.83;64.21;101328.41;1704921;84;21677;-74
2022/11/07 07:30:41;;;;;;;26.85;19.05;;;;;;;9.88;64.22;101333.06;1701625;84;21131;-74
2022/11/07 07:33:08;;;;;;;24.10;17.02;;;;;;;9.90;64.17;101334.95;1705390;84;20965;-74
2022/11/07 07:35:35;;;;;;;22.95;17.05;;;;;;;9.91;63.97;101335.79;1704998;84;21507;-75
2022/11/07 07:38:03;;;;;;;24.75;18.07;;;;;;;9.90;63.93;101344.29;1705345;82;21028;-75
2022/11/07 07:40:30;;;;;;;22.10;16.77;;;;;;;9.90;63.96;101337.63;1691923;84;21139;-74
2022/11/07 07:42:56;;;;;;;24.90;18.40;;;;;;;9.93;63.95;101338.48;1676855;85;20989;-75
2022/11/07 07:45:22;;;;;;;25.72;17.82;;;;;;;9.94;63.86;101339.33;1677157;85;21072;-75
2022/11/07 07:47:51;;;;;;;22.02;16.57;;;;;;;9.94;63.86;101333.98;1676980;85;21166;-73
2022/11/07 07:50:18;;;;;;;29.30;18.25;;;;;;;9.96;63.77;101343.36;1651792;85;21117;-74
2022/11/07 07:52:45;;;;;;;22.05;16.10;;;;;;;9.98;63.70;101338.62;1655611;86;21630;-76
2022/11/07 07:55:11;;;;;;;26.52;17.42;;;;;;;10.00;63.70;101332.53;1633396;87;21559;-75
2022/11/07 07:57:41;;;;;;;21.42;16.15;;;;;;;10.01;63.54;101338.67;1707116;84;21098;-76
2022/11/07 08:00:12;;;;;;;23.80;16.67;;;;;;;10.00;63.49;101329.03;1703825;84;21049;-75
2022/11/07 08:02:42;;;;;;;22.60;16.57;;;;;;;10.02;63.46;101331.76;1684915;84;21099;-75
2022/11/07 08:05:11;;;;;;;23.62;16.80;;;;;;;10.07;63.46;101336.41;1688725;84;21048;-75
2022/11/07 08:07:49;;;;;;;21.57;16.65;;;;;;;10.07;63.23;101331.87;1663578;85;21722;-75
2022/11/07 08:10:17;;;;;;;21.10;15.70;;;;;;;10.08;63.21;101336.16;1704290;84;21067;-74
2022/11/07 08:12:47;;;;;;;24.32;17.25;;;;;;;10.10;63.16;101335.91;1709509;84;21147;-74
2022/11/07 08:15:14;;;;;;;22.70;16.12;;;;;;;10.13;63.13;101343.98;1708059;84;21055;-76
2022/11/07 08:17:42;;;;;;;21.97;16.63;;;;;;;10.14;63.08;101344.30;1455921;82;10000420;-76
2022/11/07 08:20:10;;;;;;;22.90;17.40;;;;;;;10.18;63.02;101346.78;1331328;84;10000164;-78
2022/11/07 08:22:37;;;;;;;22.15;16.42;;;;;;;10.22;63.00;101345.25;1687886;84;20939;-75
2022/11/07 08:25:06;;;;;;;20.45;16.35;;;;;;;10.23;62.84;101349.54;1658188;85;21082;-75
2022/11/07 08:27:32;;;;;;;22.25;16.23;;;;;;;10.23;62.70;101341.53;1646099;86;21576;-76
2022/11/07 08:29:59;;;;;;;21.62;16.10;;;;;;;10.24;62.70;101347.98;1693655;84;21118;-77
2022/11/07 08:32:27;;;;;;;21.97;16.02;;;;;;;10.26;62.64;101347.77;1683761;84;21900;-75
2022/11/07 08:34:56;;;;;;;22.25;16.77;;;;;;;10.26;62.54;101350.44;1702191;84;21110;-75
2022/11/07 08:37:24;;;;;;;21.10;16.05;;;;;;;10.27;62.48;101347.55;1680273;84;21048;-74
2022/11/07 08:39:50;;;;;;;22.65;15.90;;;;;;;10.26;62.41;101354.44;1688482;84;21738;-76
2022/11/07 08:42:17;;;;;;;21.57;15.30;;;;;;;10.25;62.41;101348.27;1693620;82;21047;-76
2022/11/07 08:44:43;;;;;;;20.17;15.50;;;;;;;10.26;62.39;101344.56;1680899;84;21119;-76
2022/11/07 08:47:11;;;;;;;20.92;15.88;;;;;;;10.31;62.43;101338.54;1680911;82;21055;-76
2022/11/07 08:49:39;;;;;;;21.02;15.32;;;;;;;10.37;62.43;101344.28;1700594;84;21043;-76
2022/11/07 08:52:07;;;;;;;24.77;16.00;;;;;;;10.37;62.34;101347.47;1708359;82;21593;-77
2022/11/07 08:54:34;;;;;;;20.75;15.85;;;;;;;10.37;62.22;101343.47;1689550;84;21035;-76
2022/11/07 08:57:01;;;;;;;20.75;14.80;;;;;;;10.37;62.19;101344.28;1676168;85;21473;-77
2022/11/07 08:59:28;;;;;;;19.70;14.98;;;;;;;10.39;62.16;101339.49;1665977;84;21022;-76
2022/11/07 09:01:55;;;;;;;20.40;15.25;;;;;;;10.38;62.07;101336.55;1650514;86;21067;-74
2022/11/07 09:04:21;;;;;;;19.52;15.00;;;;;;;10.37;62.06;101330.92;1714316;82;21524;-75
2022/11/07 09:06:47;;;;;;;19.95;15.08;;;;;;;10.39;62.05;101331.48;1718448;82;20984;-76
2022/11/07 09:09:15;;;;;;;18.40;14.27;;;;;;;10.38;61.98;101325.86;1701513;82;22353;-75
2022/11/07 09:11:41;;;;;;;20.40;15.10;;;;;;;10.38;62.01;101319.19;1698857;82;21712;-76
2022/11/07 09:14:09;;;;;;;19.43;14.77;;;;;;;10.39;61.90;101318.13;1708010;82;21080;-76
2022/11/07 09:16:37;;;;;;;18.93;14.30;;;;;;;10.40;61.88;101315.77;1701576;82;21534;-75
2022/11/07 09:19:11;;;;;;;19.80;14.55;;;;;;;10.41;61.86;101317.91;1423501;81;10000561;-75
2022/11/07 09:21:37;;;;;;;20.35;14.43;;;;;;;10.43;61.74;101306.45;1694618;84;21620;-74
2022/11/07 09:24:06;;;;;;;20.80;14.68;;;;;;;10.43;61.95;101313.12;1691137;83;20971;-74
2022/11/07 09:26:33;;;;;;;20.05;14.30;;;;;;;10.44;62.03;101305.42;1663328;85;21139;-75
2022/11/07 09:29:00;;;;;;;21.12;15.00;;;;;;;10.43;61.95;101303.28;1663175;86;21050;-75
2022/11/07 09:31:27;;;;;;;20.35;15.88;;;;;;;10.42;61.94;101308.31;1681670;84;21133;-74
2022/11/07 09:33:54;;;;;;;23.02;16.80;;;;;;;10.40;62.05;101301.08;1695289;84;21088;-75
2022/11/07 09:36:22;;;;;;;21.25;15.58;;;;;;;10.38;62.26;101297.02;1702659;83;21119;-74
2022/11/07 09:38:49;;;;;;;22.55;16.17;;;;;;;10.37;62.35;101296.21;1651902;85;21121;-75
2022/11/07 09:41:36;;;;;;;19.52;14.25;;;;;;;10.38;62.44;101298.35;1638100;86;21073;-75
2022/11/07 09:44:36;;;;;;;19.23;14.45;;;;;;;10.34;62.52;101299.35;1634698;84;21265;-76
2022/11/07 09:47:19;;;;;;;21.65;14.98;;;;;;;10.31;62.70;101292.62;1678982;82;21576;-76
2022/11/07 09:50:00;;;;;;;21.23;15.40;;;;;;;10.32;62.86;101291.56;1693379;82;21086;-75
2022/11/07 09:52:47;;;;;;;19.40;15.20;;;;;;;10.28;62.79;101296.28;1692958;82;21053;-74
2022/11/07 09:55:28;;;;;;;22.60;16.00;;;;;;;10.24;62.79;101296.45;1452881;82;10000283;-75
2022/11/07 09:57:57;;;;;;;18.25;14.68;;;;;;;10.22;62.81;101295.34;1677301;83;21058;-74
2022/11/07 10:00:24;;;;;;;19.75;14.40;;;;;;;10.19;62.80;101290.47;1698376;84;21139;-74
2022/11/07 10:02:56;;;;;;;20.17;15.75;;;;;;;10.17;62.74;101290.41;1690087;84;21142;-74
2022/11/07 10:05:54;;;;;;;17.73;14.40;;;;;;;10.14;62.65;101285.04;1685457;84;21107;-77
2022/11/07 10:08:28;;;;;;;18.75;14.60;;;;;;;10.07;62.51;101285.17;1685149;84;21071;-75
2022/11/07 10:11:02;;;;;;;17.77;12.75;;;;;;;9.96;62.33;101280.65;1704407;84;20988;-75
2022/11/07 10:13:59;;;;;;;18.67;14.43;;;;;;;9.93;62.34;101267.77;1692173;84;21028;-75
2022/11/07 10:16:55;;;;;;;17.77;13.65;;;;;;;9.91;62.37;101273.08;1690631;84;21594;-74
2022/11/07 10:19:40;;;;;;;18.57;13.95;;;;;;;9.93;62.53;101271.77;1702927;84;21052;-74
2022/11/07 10:22:41;;;;;;;18.82;13.68;;;;;;;9.92;62.29;101272.02;1682844;82;21331;-73
2022/11/07 10:25:36;;;;;;;20.00;14.95;;;;;;;9.90;62.34;101266.91;1694072;84;21115;-75
2022/11/07 10:28:17;;;;;;;20.62;15.08;;;;;;;9.87;62.31;101260.70;1674533;85;20936;-76
2022/11/07 10:30:52;;;;;;;17.98;14.58;;;;;;;9.84;62.33;101252.67;1694858;84;21152;-74
2022/11/07 10:33:36;;;;;;;19.17;14.38;;;;;;;9.86;62.38;101249.75;1693939;83;21562;-74
2022/11/07 10:36:11;;;;;;;19.20;14.83;;;;;;;9.89;62.37;101247.14;1687188;84;21063;-75
2022/11/07 10:38:41;;;;;;;17.05;13.05;;;;;;;9.92;62.36;101246.14;1683571;84;21170;-76
2022/11/07 10:41:15;;;;;;;18.82;14.40;;;;;;;9.93;62.27;101238.95;1683617;84;21080;-73
2022/11/07 10:43:45;;;;;;;17.75;14.13;;;;;;;9.91;62.10;101235.20;1699104;84;21542;-76
2022/11/07 10:46:20;;;;;;;16.93;13.08;;;;;;;9.91;62.14;101227.19;1695070;84;21049;-77
2022/11/07 10:48:56;;;;;;;19.05;13.62;;;;;;;9.92;62.05;101223.47;1691581;84;21103;-74
2022/11/07 10:51:35;;;;;;;18.57;14.23;;;;;;;9.93;61.90;101232.28;1696478;84;21067;-74
2022/11/07 10:54:03;;;;;;;17.27;13.18;;;;;;;9.95;61.88;101229.66;1695755;84;21757;-75
2022/11/07 10:56:32;;;;;;;16.23;12.30;;;;;;;9.98;61.79;101217.19;1692605;84;21132;-83
2022/11/07 10:59:01;;;;;;;17.42;13.20;;;;;;;9.99;61.58;101212.66;1690446;84;21127;-73
2022/11/07 11:01:33;;;;;;;18.73;13.60;;;;;;;9.98;61.40;101217.72;1694948;82;20971;-74
2022/11/07 11:03:56;;;;;;;17.52;13.05;;;;;;;9.98;61.25;101212.38;1690648;84;21075;-74
2022/11/07 11:06:29;;;;;;;17.48;13.08;;;;;;;9.99;61.21;101216.66;1651894;85;21108;-73
2022/11/07 11:08:56;;;;;;;16.07;12.82;;;;;;;10.02;61.14;101215.66;1644989;86;21602;-74
2022/11/07 11:11:28;;;;;;;15.32;11.90;;;;;;;10.05;61.07;101213.86;1691866;84;21059;-73
2022/11/07 11:14:06;;;;;;;17.32;13.58;;;;;;;10.08;61.15;101210.72;1691536;82;21491;-74
2022/11/07 11:16:36;;;;;;;17.90;12.55;;;;;;;10.08;61.15;101210.72;1696074;84;21044;-74
2022/11/07 11:19:04;;;;;;;17.07;12.00;;;;;;;10.13;60.68;101205.98;1685111;82;21111;-73
2022/11/07 11:21:42;;;;;;;16.25;12.50;;;;;;;10.11;60.51;101208.09;1700831;82;21134;-73
2022/11/07 11:24:16;;;;;;;17.00;12.50;;;;;;;10.14;60.40;101211.62;1692963;82;20997;-74
2022/11/07 11:26:43;;;;;;;18.05;12.07;;;;;;;10.16;60.35;101214.05;1696293;82;20984;-73
2022/11/07 11:29:21;;;;;;;17.00;12.43;;;;;;;10.16;60.33;101210.85;1578486;82;9999774;-73
2022/11/07 11:31:50;;;;;;;16.50;13.13;;;;;;;10.17;60.19;101206.31;1694713;84;21815;-73
2022/11/07 11:34:38;;;;;;;16.50;12.37;;;;;;;10.17;60.13;101212.98;1689152;84;21016;-72
2022/11/07 11:37:20;;;;;;;17.80;12.47;;;;;;;10.16;59.92;101204.70;1694386;84;21154;-72
2022/11/07 11:39:51;;;;;;;17.00;12.45;;;;;;;10.12;59.83;101206.23;1691289;84;21056;-73